Niagara Falls, NY

4:05 PM EDT on August 21, 2014 (GMT -0400)
Monroe Sub Niagara Falls ON | Change Station
CLOSE
Current Station
Personal Weather Station
Location: Niagara Falls, ON
Elevation: 670 ft
Nearby Weather Stations

Elev 670 ft 43.11 °N, 79.11 °W | Updated 5 seconds ago

Mostly Cloudy
Mostly Cloudy
83.3 °F
Feels Like 86 °F
N
5.4
Wind Variable Wind from SW
Gusts 6.0 mph

Today
High -- | Low -- °F
--% Chance of Precip.
Yesterday
High -- | Low -- °F
Precip. -- in
6:28 AM 8:09 PM
Waning Crescent, 12% visible
Pressure 29.94 in
Visibility 10.0 miles
Clouds Mostly Cloudy 4400 ft
Heat Index 86 °F
Dew Point 66 °F
Humidity 57%
Rainfall 0.00 in
Snow Depth Not available.
UV 3 out of 12
Pollen 7.10 out of 12
Air Quality Not available.
Flu Activity Not available.
METAR KIAG 211953Z 24008G17KT 10SM BKN044 26/18 A2994 RMK AO2 SLP136 CB DSNT SE T02560178 $

More Conditions Fewer Conditions

Pressure 29.94 in
Visibility 10.0 miles
Clouds Mostly Cloudy 4400 ft
Heat Index 86 °F
Dew Point 66 °F
Humidity 57%
Rainfall 0.00 in
Snow Depth Not available.
UV 3 out of 12
Pollen 7.10 out of 12
Air Quality Not available.
Flu Activity Not available.
METAR KIAG 211953Z 24008G17KT 10SM BKN044 26/18 A2994 RMK AO2 SLP136 CB DSNT SE T02560178 $

More Conditions Fewer Conditions

10-Day Weather Forecast

Almanac

Astronomy

Aug. 21, 2014 Rise Set
Actual Time 6:28 AM EDT 8:09 PM EDT
Civil Twilight 5:58 AM EDT 8:39 PM EDT
Nautical Twilight 5:21 AM EDT 9:15 PM EDT
Astronomical Twilight 4:42 AM EDT 9:54 PM EDT
Moon 2:54 AM EDT 5:39 PM EDT
Length of Visible Light 14h 41m
Length of Day
13h 40m
Tomorrow will be 2m 42s shorter.
Waning Crescent, 12% of the Moon is Illuminated
Today
Waning Crescent
Aug 25
New
Sep 2
First Quarter
Sep 8
Full
Sep 15
Last Quarter

Today's Extremes

State Highs State Lows

Community

WunderPhotos

Upload Photos

1,746,011 photos uploaded!

WunderBlogs® & News

Nearby

Air Quality

  Air Quality AQ Index Pollutant
Thursday Moderate
OZONE
Thursday Good
PM2.5
Friday Good
OZONE
Friday Good
PM2.5

Snow Depth

Station Depth Elevation
No new snow has been reported.

Earthquake Activity

City Distance Mag. Time & Date
No recent earthquake activity has been reported nearby.
Minimum magnitude displayed is 2.5.

Coastal Water Temperatures

Place Temperature
Buffalo, NY 72.0 °F

Nearby Weather Stations